LESTLECO

Guest
Details From LEST - Santiago
To LECO - A Coruna
Flight Number -
Tags Routegen Generated
Created
Modified
Stats Distance 24 nm / 44 km
Max Altitude 100 ft / 30 m
Waypoints 5
Social Downloads 3
Likes 0
Share

Download

Looking for another format? Having issues loading an existing format? Contact us
Advertisement - Login to hide

Notes

Departing runway 34 LEST. Arriving runway 3 LECO.

Route

LEST +42.98_-008.44 +43.11_-008.44 +43.23_-008.43 LECO

ID Type Via Altitude (ft/m) Position (lat/lon) Dist (leg/tot) Name
O LEST APT - 0 / 0 42.91177 / -8.42043 - / 0 nm
+42.98_-008.44 LATLON - 100 / 30 42.98200 / -8.44428 4 / 4 nm
+43.11_-008.44 LATLON - 100 / 30 43.10733 / -8.43923 7 / 11 nm
+43.23_-008.43 LATLON - 100 / 30 43.23265 / -8.43417 7 / 19 nm
O LECO APT - 0 / 0 43.29478 / -8.38323 4 / 23 nm

Altitude Profile

Advertisement - Login to hide

LEST

Details ICAO LEST (SCQ)
Name Santiago
Region Spain
Timezone Europe/Madrid (UTC+2.0)
Stats Elevation 1,168 ft / 356 m (AMSL)
Location 42.897800° -8.415640°
Runways 1
Magnetic Variation 2.002° W

METAR

LEST 201130Z VRB02KT 9999 FEW010 SCT019 20/14 Q1018 NOSIG

Decode

TAF

TAF LEST 200500Z 2006/2106 VRB05KT 9999 FEW020 SCT030 TX20/2015Z TN12/2106Z PROB40 TEMPO 2006/2010 3000 -RA SHRA BR BKN010 SCT030TCU PROB30 TEMPO 2006/2009 1500 BCFG BKN005 TEMPO 2013/2018 25010KT TEMPO 2010/2018 3000 RA SHRA SCT030TCU

Decode

Departure Runways

ID Width Length Bearing (true/mag) Surface Threshold Overrun Markings Lighting
17 148 ft / 45 m 10,509 ft / 3,203 m 166.20° / 168.20° ASPHALT 387 ft / 118 m 203 ft / 62 m PREC-APP CENTERLINE EDGE THRESHOLD ALSF-I
35 148 ft / 45 m 10,509 ft / 3,203 m 346.20° / 348.21° ASPHALT 0 ft / 0 m 0 ft / 0 m PREC-APP CENTERLINE EDGE THRESHOLD SALS

LECO

Details ICAO LECO (LCG)
Name A Coruna
Region Spain
Timezone Europe/Madrid (UTC+2.0)
Stats Elevation 330 ft / 101 m (AMSL)
Location 43.301900° -8.377220°
Runways 1
Magnetic Variation 2.020° W

METAR

LECO 201130Z 02003KT 320V070 9999 FEW018 21/17 Q1017 NOSIG

Decode

TAF

TAF LECO 200800Z 2009/2109 VRB05KT 9999 SCT030 TX22/2014Z TN14/2105Z TEMPO 2013/2021 34010KT RA SHRA SCT030TCU PROB30 TEMPO 2014/2021 3000 TSRA SCT030CB TEMPO 2102/2107 1500 BR

Decode

Destination Runways

ID Width Length Bearing (true/mag) Surface Threshold Overrun Markings Lighting
03 148 ft / 45 m 6,364 ft / 1,940 m 30.94° / 32.96° ASPHALT 0 ft / 0 m 0 ft / 0 m PREC-APP CENTERLINE EDGE THRESHOLD REIL-OMNI
21 148 ft / 45 m 6,364 ft / 1,940 m 210.94° / 212.96° ASPHALT 0 ft / 0 m 0 ft / 0 m PREC-APP CENTERLINE EDGE THRESHOLD REIL-OMNI

Approach Navaids

Runway Type Ident Frequency Range Bearing (true/mag) Slope Elevation
21 DME LCO 109.90 MHz 18 nm / 33 km - - 293 ft / 89 m (AMSL)
21 LOC-ILS LCO 109.90 MHz 18 nm / 33 km 210.94° / 212.96 ° - 330 ft / 101 m (AMSL)
21 GS LCO 109.90 MHz 10 nm / 19 km 210.94° / 212.96 ° 3.00° 330 ft / 101 m (AMSL)

Popular Alternatives